sensor_id;sensor_type;location;lat;lon;timestamp;temperature;humidity
26049;DHT22;13822;51.568;5.086;2022-07-11T04:01:15;16.70;99.90
26049;DHT22;13822;51.568;5.086;2022-07-11T04:06:17;16.70;99.90
26049;DHT22;13822;51.568;5.086;2022-07-11T04:11:19;16.80;99.90
26049;DHT22;13822;51.568;5.086;2022-07-11T04:16:21;16.90;99.90
26049;DHT22;13822;51.568;5.086;2022-07-11T04:21:23;16.90;99.90
26049;DHT22;13822;51.568;5.086;2022-07-11T04:26:25;16.90;99.90
26049;DHT22;13822;51.568;5.086;2022-07-11T04:31:27;16.90;99.90
26049;DHT22;13822;51.568;5.086;2022-07-11T04:36:29;16.90;99.90
26049;DHT22;13822;51.568;5.086;2022-07-11T04:41:30;16.90;99.90
26049;DHT22;13822;51.568;5.086;2022-07-11T04:46:32;16.80;99.90
26049;DHT22;13822;51.568;5.086;2022-07-11T04:51:35;16.80;99.90
26049;DHT22;13822;51.568;5.086;2022-07-11T04:56:38;16.90;99.90
26049;DHT22;13822;51.568;5.086;2022-07-11T05:01:39;16.90;99.90
26049;DHT22;13822;51.568;5.086;2022-07-11T05:06:42;16.90;99.90
26049;DHT22;13822;51.568;5.086;2022-07-11T05:11:44;17.00;99.90
26049;DHT22;13822;51.568;5.086;2022-07-11T05:16:46;17.00;99.90
26049;DHT22;13822;51.568;5.086;2022-07-11T05:21:48;17.10;99.90
26049;DHT22;13822;51.568;5.086;2022-07-11T05:26:50;17.10;99.90
26049;DHT22;13822;51.568;5.086;2022-07-11T05:31:52;17.20;99.90
26049;DHT22;13822;51.568;5.086;2022-07-11T05:36:54;17.20;99.90
26049;DHT22;13822;51.568;5.086;2022-07-11T05:41:56;17.20;99.90
26049;DHT22;13822;51.568;5.086;2022-07-11T05:47:02;17.30;99.90
26049;DHT22;13822;51.568;5.086;2022-07-11T05:52:04;17.30;99.90
26049;DHT22;13822;51.568;5.086;2022-07-11T05:57:06;17.30;99.90
26049;DHT22;13822;51.568;5.086;2022-07-11T06:02:08;17.30;99.90
26049;DHT22;13822;51.568;5.086;2022-07-11T06:07:10;17.40;99.90
26049;DHT22;13822;51.568;5.086;2022-07-11T06:12:13;17.30;99.90
26049;DHT22;13822;51.568;5.086;2022-07-11T06:17:14;17.40;99.90
26049;DHT22;13822;51.568;5.086;2022-07-11T06:22:16;17.40;99.90
26049;DHT22;13822;51.568;5.086;2022-07-11T06:27:25;17.40;99.90
26049;DHT22;13822;51.568;5.086;2022-07-11T06:32:27;17.40;99.90
26049;DHT22;13822;51.568;5.086;2022-07-11T06:37:29;17.40;99.90
26049;DHT22;13822;51.568;5.086;2022-07-11T06:42:32;17.50;99.90
26049;DHT22;13822;51.568;5.086;2022-07-11T06:53:39;17.50;99.90
26049;DHT22;13822;51.568;5.086;2022-07-11T06:58:41;17.60;99.90
26049;DHT22;13822;51.568;5.086;2022-07-11T07:03:43;17.60;99.90
26049;DHT22;13822;51.568;5.086;2022-07-11T07:08:46;17.70;99.90
26049;DHT22;13822;51.568;5.086;2022-07-11T07:13:48;17.80;99.90
26049;DHT22;13822;51.568;5.086;2022-07-11T07:18:51;17.90;99.90
26049;DHT22;13822;51.568;5.086;2022-07-11T07:23:53;18.00;99.90
26049;DHT22;13822;51.568;5.086;2022-07-11T07:28:55;18.10;99.90
26049;DHT22;13822;51.568;5.086;2022-07-11T07:33:57;18.10;99.90
26049;DHT22;13822;51.568;5.086;2022-07-11T07:38:59;18.10;99.90
26049;DHT22;13822;51.568;5.086;2022-07-11T07:44:02;18.10;99.90
26049;DHT22;13822;51.568;5.086;2022-07-11T07:49:04;18.10;99.90
26049;DHT22;13822;51.568;5.086;2022-07-11T07:54:06;18.20;99.90
26049;DHT22;13822;51.568;5.086;2022-07-11T07:59:08;18.30;99.90
26049;DHT22;13822;51.568;5.086;2022-07-11T08:04:13;18.40;99.90
26049;DHT22;13822;51.568;5.086;2022-07-11T08:09:16;18.50;99.90
26049;DHT22;13822;51.568;5.086;2022-07-11T08:14:22;18.50;99.90
26049;DHT22;13822;51.568;5.086;2022-07-11T08:19:24;18.60;99.90
26049;DHT22;13822;51.568;5.086;2022-07-11T08:24:29;18.60;99.90
26049;DHT22;13822;51.568;5.086;2022-07-11T08:29:38;18.50;99.90
26049;DHT22;13822;51.568;5.086;2022-07-11T08:34:40;18.50;99.90
26049;DHT22;13822;51.568;5.086;2022-07-11T08:39:42;18.60;99.90
26049;DHT22;13822;51.568;5.086;2022-07-11T08:44:48;18.60;99.90
26049;DHT22;13822;51.568;5.086;2022-07-11T08:49:51;18.60;99.90
26049;DHT22;13822;51.568;5.086;2022-07-11T08:54:53;18.60;99.90
26049;DHT22;13822;51.568;5.086;2022-07-11T08:59:57;18.70;99.90
26049;DHT22;13822;51.568;5.086;2022-07-11T09:05:02;18.80;99.90
26049;DHT22;13822;51.568;5.086;2022-07-11T09:10:07;18.90;99.90
26049;DHT22;13822;51.568;5.086;2022-07-11T09:15:09;19.00;99.90
26049;DHT22;13822;51.568;5.086;2022-07-11T09:20:15;19.10;99.90
26049;DHT22;13822;51.568;5.086;2022-07-11T09:25:17;19.20;99.90
26049;DHT22;13822;51.568;5.086;2022-07-11T09:30:38;19.30;99.90
26049;DHT22;13822;51.568;5.086;2022-07-11T09:35:45;19.30;99.90
26049;DHT22;13822;51.568;5.086;2022-07-11T09:40:48;19.40;99.90
26049;DHT22;13822;51.568;5.086;2022-07-11T09:45:50;19.60;99.90
26049;DHT22;13822;51.568;5.086;2022-07-11T09:50:56;19.90;99.90
26049;DHT22;13822;51.568;5.086;2022-07-11T09:56:03;20.10;99.90
26049;DHT22;13822;51.568;5.086;2022-07-11T10:01:07;20.30;99.90
26049;DHT22;13822;51.568;5.086;2022-07-11T10:06:09;20.40;99.90
26049;DHT22;13822;51.568;5.086;2022-07-11T10:11:12;20.50;99.90
26049;DHT22;13822;51.568;5.086;2022-07-11T10:32:57;21.10;99.90
26049;DHT22;13822;51.568;5.086;2022-07-11T10:38:00;21.20;99.90
26049;DHT22;13822;51.568;5.086;2022-07-11T10:43:06;21.30;99.90
26049;DHT22;13822;51.568;5.086;2022-07-11T10:48:11;21.40;99.90
26049;DHT22;13822;51.568;5.086;2022-07-11T10:53:20;21.40;99.90
26049;DHT22;13822;51.568;5.086;2022-07-11T10:58:28;21.50;99.90
26049;DHT22;13822;51.568;5.086;2022-07-11T11:03:31;21.90;99.90
26049;DHT22;13822;51.568;5.086;2022-07-11T11:14:19;22.40;99.90
26049;DHT22;13822;51.568;5.086;2022-07-11T11:25:22;22.20;99.90
26049;DHT22;13822;51.568;5.086;2022-07-11T11:30:36;22.10;99.90
26049;DHT22;13822;51.568;5.086;2022-07-11T11:47:46;22.00;99.90
26049;DHT22;13822;51.568;5.086;2022-07-11T11:52:54;22.20;99.90
26049;DHT22;13822;51.568;5.086;2022-07-11T11:58:09;22.30;99.90
26049;DHT22;13822;51.568;5.086;2022-07-11T12:03:18;22.70;99.90
26049;DHT22;13822;51.568;5.086;2022-07-11T12:08:29;23.40;99.90
26049;DHT22;13822;51.568;5.086;2022-07-11T12:19:01;23.60;99.90
26049;DHT22;13822;51.568;5.086;2022-07-11T12:24:10;24.10;99.90
26049;DHT22;13822;51.568;5.086;2022-07-11T12:30:01;24.10;99.90
26049;DHT22;13822;51.568;5.086;2022-07-11T12:46:32;24.50;99.90
26049;DHT22;13822;51.568;5.086;2022-07-11T12:52:07;24.90;99.90
26049;DHT22;13822;51.568;5.086;2022-07-11T13:02:29;24.60;99.90
26049;DHT22;13822;51.568;5.086;2022-07-11T13:07:36;24.50;99.90
26049;DHT22;13822;51.568;5.086;2022-07-11T13:12:57;24.80;99.90
26049;DHT22;13822;51.568;5.086;2022-07-11T13:17:59;25.20;99.90
26049;DHT22;13822;51.568;5.086;2022-07-11T13:23:02;25.60;99.90
26049;DHT22;13822;51.568;5.086;2022-07-11T13:28:05;25.90;99.90
26049;DHT22;13822;51.568;5.086;2022-07-11T13:33:11;26.20;99.90
26049;DHT22;13822;51.568;5.086;2022-07-11T13:38:13;26.30;99.90
26049;DHT22;13822;51.568;5.086;2022-07-11T13:43:15;26.70;99.90
26049;DHT22;13822;51.568;5.086;2022-07-11T13:48:18;26.70;99.90
26049;DHT22;13822;51.568;5.086;2022-07-11T13:53:22;26.60;99.90
26049;DHT22;13822;51.568;5.086;2022-07-11T13:58:25;26.70;99.90
26049;DHT22;13822;51.568;5.086;2022-07-11T14:03:31;27.10;99.90
26049;DHT22;13822;51.568;5.086;2022-07-11T14:08:34;27.40;99.90
26049;DHT22;13822;51.568;5.086;2022-07-11T14:13:36;27.00;99.90
26049;DHT22;13822;51.568;5.086;2022-07-11T14:18:38;26.60;99.90
26049;DHT22;13822;51.568;5.086;2022-07-11T14:23:40;26.60;99.90
26049;DHT22;13822;51.568;5.086;2022-07-11T14:28:42;26.60;99.90
26049;DHT22;13822;51.568;5.086;2022-07-11T14:33:44;26.50;99.90
26049;DHT22;13822;51.568;5.086;2022-07-11T14:38:46;26.30;99.90
26049;DHT22;13822;51.568;5.086;2022-07-11T14:43:48;26.10;99.90
26049;DHT22;13822;51.568;5.086;2022-07-11T14:48:53;26.10;99.90
26049;DHT22;13822;51.568;5.086;2022-07-11T14:53:55;26.00;99.90
26049;DHT22;13822;51.568;5.086;2022-07-11T14:58:58;25.60;99.90
26049;DHT22;13822;51.568;5.086;2022-07-11T15:04:00;25.70;99.90
26049;DHT22;13822;51.568;5.086;2022-07-11T15:09:05;25.80;99.90
26049;DHT22;13822;51.568;5.086;2022-07-11T15:14:29;26.00;99.90
26049;DHT22;13822;51.568;5.086;2022-07-11T15:19:31;26.20;99.90
26049;DHT22;13822;51.568;5.086;2022-07-11T15:24:33;26.30;99.90
26049;DHT22;13822;51.568;5.086;2022-07-11T15:29:35;26.50;99.90
26049;DHT22;13822;51.568;5.086;2022-07-11T15:34:38;26.60;99.90
26049;DHT22;13822;51.568;5.086;2022-07-11T15:39:47;26.70;99.90
26049;DHT22;13822;51.568;5.086;2022-07-11T15:44:49;26.80;99.90
26049;DHT22;13822;51.568;5.086;2022-07-11T15:49:51;26.70;99.90
26049;DHT22;13822;51.568;5.086;2022-07-11T15:54:53;26.70;99.90
26049;DHT22;13822;51.568;5.086;2022-07-11T15:59:55;26.70;99.90
26049;DHT22;13822;51.568;5.086;2022-07-11T16:04:57;26.60;99.90
26049;DHT22;13822;51.568;5.086;2022-07-11T16:09:59;26.70;99.90
26049;DHT22;13822;51.568;5.086;2022-07-11T16:15:04;26.60;99.90
26049;DHT22;13822;51.568;5.086;2022-07-11T16:20:06;26.60;99.90
26049;DHT22;13822;51.568;5.086;2022-07-11T16:25:09;26.70;99.90
26049;DHT22;13822;51.568;5.086;2022-07-11T16:30:11;26.60;99.90
26049;DHT22;13822;51.568;5.086;2022-07-11T16:35:14;26.40;99.90
26049;DHT22;13822;51.568;5.086;2022-07-11T16:40:16;26.30;99.90
26049;DHT22;13822;51.568;5.086;2022-07-11T16:45:36;26.20;99.90
26049;DHT22;13822;51.568;5.086;2022-07-11T16:50:39;26.00;99.90
26049;DHT22;13822;51.568;5.086;2022-07-11T16:55:48;25.80;99.90
26049;DHT22;13822;51.568;5.086;2022-07-11T17:00:51;26.00;99.90
26049;DHT22;13822;51.568;5.086;2022-07-11T17:05:55;26.00;99.90
26049;DHT22;13822;51.568;5.086;2022-07-11T17:10:58;25.90;99.90
26049;DHT22;13822;51.568;5.086;2022-07-11T17:16:03;25.60;99.90
26049;DHT22;13822;51.568;5.086;2022-07-11T17:21:06;25.40;99.90
26049;DHT22;13822;51.568;5.086;2022-07-11T17:26:11;25.20;99.90
26049;DHT22;13822;51.568;5.086;2022-07-11T17:31:13;25.00;99.90
26049;DHT22;13822;51.568;5.086;2022-07-11T17:36:15;24.90;99.90
26049;DHT22;13822;51.568;5.086;2022-07-11T17:41:17;24.80;99.90
26049;DHT22;13822;51.568;5.086;2022-07-11T17:46:19;24.70;99.90
26049;DHT22;13822;51.568;5.086;2022-07-11T17:51:21;24.70;99.90
26049;DHT22;13822;51.568;5.086;2022-07-11T17:56:30;24.70;99.90
26049;DHT22;13822;51.568;5.086;2022-07-11T18:01:31;24.50;99.90
26049;DHT22;13822;51.568;5.086;2022-07-11T18:06:34;24.30;99.90
26049;DHT22;13822;51.568;5.086;2022-07-11T18:11:36;24.20;99.90
26049;DHT22;13822;51.568;5.086;2022-07-11T18:16:38;24.10;99.90
26049;DHT22;13822;51.568;5.086;2022-07-11T18:21:40;24.00;99.90
26049;DHT22;13822;51.568;5.086;2022-07-11T18:26:42;23.90;99.90
26049;DHT22;13822;51.568;5.086;2022-07-11T18:31:44;23.90;99.90
26049;DHT22;13822;51.568;5.086;2022-07-11T18:36:46;23.80;99.90
26049;DHT22;13822;51.568;5.086;2022-07-11T18:41:48;23.70;99.90
26049;DHT22;13822;51.568;5.086;2022-07-11T18:46:52;23.60;99.90
26049;DHT22;13822;51.568;5.086;2022-07-11T18:51:54;23.60;99.90
26049;DHT22;13822;51.568;5.086;2022-07-11T18:56:56;23.50;99.90
26049;DHT22;13822;51.568;5.086;2022-07-11T19:01:58;23.50;99.90
26049;DHT22;13822;51.568;5.086;2022-07-11T19:07:01;23.40;99.90
26049;DHT22;13822;51.568;5.086;2022-07-11T19:12:04;23.40;99.90
26049;DHT22;13822;51.568;5.086;2022-07-11T19:17:07;23.40;99.90
26049;DHT22;13822;51.568;5.086;2022-07-11T19:22:09;23.40;99.90
26049;DHT22;13822;51.568;5.086;2022-07-11T19:27:11;23.30;99.90
26049;DHT22;13822;51.568;5.086;2022-07-11T19:32:13;23.30;99.90
26049;DHT22;13822;51.568;5.086;2022-07-11T19:37:15;23.20;99.90
26049;DHT22;13822;51.568;5.086;2022-07-11T19:42:17;23.20;99.90
26049;DHT22;13822;51.568;5.086;2022-07-11T19:47:19;23.10;99.90
26049;DHT22;13822;51.568;5.086;2022-07-11T19:52:24;23.10;99.90
26049;DHT22;13822;51.568;5.086;2022-07-11T19:57:30;23.00;99.90
26049;DHT22;13822;51.568;5.086;2022-07-11T20:02:50;22.90;99.90
26049;DHT22;13822;51.568;5.086;2022-07-11T20:07:56;22.80;99.90
26049;DHT22;13822;51.568;5.086;2022-07-11T20:12:58;22.70;99.90
26049;DHT22;13822;51.568;5.086;2022-07-11T20:18:01;22.70;99.90
